Terminal Aerodrome Forecast
Issued by NWS

Current Version | Previous Version | Text Only | Print | Product List | Glossary On
Versions: 1 2 3 4 5 6 7 8 9 10 11 12 13 14 15 16 17 18 19 20 21 22 23
000
FTUS44 KLIX 270500
TAFHDC
TAF
KHDC 270536Z 2706/2806 01013G17KT P6SM SCT020
      TEMPO 2707/2709 BKN020
     FM270900 03005KT P6SM SCT020 BKN250
      TEMPO 2709/2713 BKN020
     FM271300 04005KT P6SM BKN250=

USA.gov is the U.S. government's official web portal to all federal, state and local government web resources and services.